sensor_id;sensor_type;location;lat;lon;timestamp;P1;durP1;ratioP1;P2;durP2;ratioP2
20245;SDS011;10281;54.406;18.556;2022-09-06T00:01:48;4.93;;;3.00;;
20245;SDS011;10281;54.406;18.556;2022-09-06T00:06:51;4.77;;;2.80;;
20245;SDS011;10281;54.406;18.556;2022-09-06T00:09:18;5.13;;;3.20;;
20245;SDS011;10281;54.406;18.556;2022-09-06T00:11:44;4.97;;;3.10;;
20245;SDS011;10281;54.406;18.556;2022-09-06T00:14:11;4.17;;;3.00;;
20245;SDS011;10281;54.406;18.556;2022-09-06T00:16:38;5.53;;;3.30;;
20245;SDS011;10281;54.406;18.556;2022-09-06T00:19:05;4.60;;;2.73;;
20245;SDS011;10281;54.406;18.556;2022-09-06T00:21:31;4.23;;;3.17;;
20245;SDS011;10281;54.406;18.556;2022-09-06T00:24:00;4.33;;;3.07;;
20245;SDS011;10281;54.406;18.556;2022-09-06T00:26:28;3.27;;;2.90;;
20245;SDS011;10281;54.406;18.556;2022-09-06T00:28:55;3.80;;;2.93;;
20245;SDS011;10281;54.406;18.556;2022-09-06T00:31:23;4.37;;;3.17;;
20245;SDS011;10281;54.406;18.556;2022-09-06T00:33:51;7.27;;;3.57;;
20245;SDS011;10281;54.406;18.556;2022-09-06T00:36:18;4.73;;;3.27;;
20245;SDS011;10281;54.406;18.556;2022-09-06T00:38:46;7.13;;;3.20;;
20245;SDS011;10281;54.406;18.556;2022-09-06T00:41:13;4.77;;;3.03;;
20245;SDS011;10281;54.406;18.556;2022-09-06T00:43:41;4.50;;;3.33;;
20245;SDS011;10281;54.406;18.556;2022-09-06T00:46:10;5.93;;;3.63;;
20245;SDS011;10281;54.406;18.556;2022-09-06T00:48:40;4.47;;;3.23;;
20245;SDS011;10281;54.406;18.556;2022-09-06T00:51:09;5.63;;;3.70;;
20245;SDS011;10281;54.406;18.556;2022-09-06T00:53:38;5.20;;;3.40;;
20245;SDS011;10281;54.406;18.556;2022-09-06T00:56:04;5.67;;;3.93;;
20245;SDS011;10281;54.406;18.556;2022-09-06T00:58:31;7.83;;;3.90;;
20245;SDS011;10281;54.406;18.556;2022-09-06T01:00:58;5.77;;;3.30;;
20245;SDS011;10281;54.406;18.556;2022-09-06T01:03:25;5.77;;;3.83;;
20245;SDS011;10281;54.406;18.556;2022-09-06T01:05:58;3.80;;;3.40;;
20245;SDS011;10281;54.406;18.556;2022-09-06T01:08:51;7.27;;;4.13;;
20245;SDS011;10281;54.406;18.556;2022-09-06T01:14:29;5.87;;;3.67;;
20245;SDS011;10281;54.406;18.556;2022-09-06T01:17:00;5.40;;;3.80;;
20245;SDS011;10281;54.406;18.556;2022-09-06T01:25:03;7.97;;;4.33;;
20245;SDS011;10281;54.406;18.556;2022-09-06T01:30:20;5.87;;;4.00;;
20245;SDS011;10281;54.406;18.556;2022-09-06T01:32:52;5.77;;;4.13;;
20245;SDS011;10281;54.406;18.556;2022-09-06T01:35:42;7.17;;;4.57;;
20245;SDS011;10281;54.406;18.556;2022-09-06T01:38:11;6.70;;;4.23;;
20245;SDS011;10281;54.406;18.556;2022-09-06T01:40:39;7.27;;;4.93;;
20245;SDS011;10281;54.406;18.556;2022-09-06T01:43:08;8.40;;;4.57;;
20245;SDS011;10281;54.406;18.556;2022-09-06T01:51:14;8.90;;;4.53;;
20245;SDS011;10281;54.406;18.556;2022-09-06T01:53:58;7.33;;;4.60;;
20245;SDS011;10281;54.406;18.556;2022-09-06T01:59:29;6.90;;;4.33;;
20245;SDS011;10281;54.406;18.556;2022-09-06T02:02:12;6.87;;;4.07;;
20245;SDS011;10281;54.406;18.556;2022-09-06T02:04:48;6.07;;;4.57;;
20245;SDS011;10281;54.406;18.556;2022-09-06T02:07:33;9.70;;;5.10;;
20245;SDS011;10281;54.406;18.556;2022-09-06T02:10:06;7.20;;;4.70;;
20245;SDS011;10281;54.406;18.556;2022-09-06T02:12:38;6.57;;;4.63;;
20245;SDS011;10281;54.406;18.556;2022-09-06T02:15:12;7.77;;;4.60;;
20245;SDS011;10281;54.406;18.556;2022-09-06T02:17:42;7.23;;;4.20;;
20245;SDS011;10281;54.406;18.556;2022-09-06T02:20:15;6.00;;;4.27;;
20245;SDS011;10281;54.406;18.556;2022-09-06T02:22:44;6.00;;;3.93;;
20245;SDS011;10281;54.406;18.556;2022-09-06T02:25:17;6.73;;;4.43;;
20245;SDS011;10281;54.406;18.556;2022-09-06T02:27:45;5.87;;;3.90;;
20245;SDS011;10281;54.406;18.556;2022-09-06T02:30:12;7.30;;;3.93;;
20245;SDS011;10281;54.406;18.556;2022-09-06T02:32:42;6.27;;;4.10;;
20245;SDS011;10281;54.406;18.556;2022-09-06T02:35:11;6.77;;;4.27;;
20245;SDS011;10281;54.406;18.556;2022-09-06T02:37:41;7.37;;;4.37;;
20245;SDS011;10281;54.406;18.556;2022-09-06T02:40:09;5.90;;;3.80;;
20245;SDS011;10281;54.406;18.556;2022-09-06T02:42:36;7.47;;;4.50;;
20245;SDS011;10281;54.406;18.556;2022-09-06T02:45:04;7.37;;;4.20;;
20245;SDS011;10281;54.406;18.556;2022-09-06T02:47:31;9.13;;;4.50;;
20245;SDS011;10281;54.406;18.556;2022-09-06T02:49:57;5.87;;;4.10;;
20245;SDS011;10281;54.406;18.556;2022-09-06T02:52:25;7.30;;;4.73;;
20245;SDS011;10281;54.406;18.556;2022-09-06T02:54:52;6.93;;;4.07;;
20245;SDS011;10281;54.406;18.556;2022-09-06T02:57:18;7.63;;;4.77;;
20245;SDS011;10281;54.406;18.556;2022-09-06T02:59:45;7.60;;;4.40;;
20245;SDS011;10281;54.406;18.556;2022-09-06T03:02:11;5.17;;;4.03;;
20245;SDS011;10281;54.406;18.556;2022-09-06T03:04:38;6.77;;;4.17;;
20245;SDS011;10281;54.406;18.556;2022-09-06T03:07:05;6.17;;;4.20;;
20245;SDS011;10281;54.406;18.556;2022-09-06T03:09:31;7.63;;;4.40;;
20245;SDS011;10281;54.406;18.556;2022-09-06T03:11:58;8.40;;;4.00;;
20245;SDS011;10281;54.406;18.556;2022-09-06T03:14:25;5.67;;;4.13;;
20245;SDS011;10281;54.406;18.556;2022-09-06T03:16:52;4.67;;;3.97;;
20245;SDS011;10281;54.406;18.556;2022-09-06T03:19:18;5.37;;;3.97;;
20245;SDS011;10281;54.406;18.556;2022-09-06T03:21:46;6.90;;;3.97;;
20245;SDS011;10281;54.406;18.556;2022-09-06T03:24:12;6.93;;;3.33;;
20245;SDS011;10281;54.406;18.556;2022-09-06T03:26:39;4.70;;;3.30;;
20245;SDS011;10281;54.406;18.556;2022-09-06T03:29:06;4.83;;;3.50;;
20245;SDS011;10281;54.406;18.556;2022-09-06T03:31:32;5.67;;;3.37;;
20245;SDS011;10281;54.406;18.556;2022-09-06T03:33:59;5.53;;;2.97;;
20245;SDS011;10281;54.406;18.556;2022-09-06T03:36:26;4.63;;;3.60;;
20245;SDS011;10281;54.406;18.556;2022-09-06T03:38:54;4.90;;;3.10;;
20245;SDS011;10281;54.406;18.556;2022-09-06T03:41:21;7.10;;;3.90;;
20245;SDS011;10281;54.406;18.556;2022-09-06T03:43:48;4.97;;;3.73;;
20245;SDS011;10281;54.406;18.556;2022-09-06T03:46:15;6.13;;;3.30;;
20245;SDS011;10281;54.406;18.556;2022-09-06T03:48:41;4.80;;;3.30;;
20245;SDS011;10281;54.406;18.556;2022-09-06T03:51:09;5.20;;;3.57;;
20245;SDS011;10281;54.406;18.556;2022-09-06T03:53:35;4.33;;;3.07;;
20245;SDS011;10281;54.406;18.556;2022-09-06T03:56:02;5.00;;;3.47;;
20245;SDS011;10281;54.406;18.556;2022-09-06T03:58:29;4.23;;;3.40;;
20245;SDS011;10281;54.406;18.556;2022-09-06T04:01:04;5.80;;;4.00;;
20245;SDS011;10281;54.406;18.556;2022-09-06T04:03:33;4.90;;;3.30;;
20245;SDS011;10281;54.406;18.556;2022-09-06T04:06:01;5.30;;;3.73;;
20245;SDS011;10281;54.406;18.556;2022-09-06T04:08:30;6.17;;;4.10;;
20245;SDS011;10281;54.406;18.556;2022-09-06T04:10:57;7.97;;;4.77;;
20245;SDS011;10281;54.406;18.556;2022-09-06T04:13:25;6.50;;;3.60;;
20245;SDS011;10281;54.406;18.556;2022-09-06T04:15:52;4.40;;;3.47;;
20245;SDS011;10281;54.406;18.556;2022-09-06T04:18:19;4.37;;;2.93;;
20245;SDS011;10281;54.406;18.556;2022-09-06T04:20:47;3.77;;;3.00;;
20245;SDS011;10281;54.406;18.556;2022-09-06T04:23:15;5.83;;;2.87;;
20245;SDS011;10281;54.406;18.556;2022-09-06T04:25:45;7.07;;;3.53;;
20245;SDS011;10281;54.406;18.556;2022-09-06T04:28:13;4.73;;;3.30;;
20245;SDS011;10281;54.406;18.556;2022-09-06T04:30:40;4.43;;;3.07;;
20245;SDS011;10281;54.406;18.556;2022-09-06T04:33:07;4.93;;;3.47;;
20245;SDS011;10281;54.406;18.556;2022-09-06T04:35:33;6.47;;;3.97;;
20245;SDS011;10281;54.406;18.556;2022-09-06T04:38:00;6.67;;;4.07;;
20245;SDS011;10281;54.406;18.556;2022-09-06T04:40:27;5.20;;;3.50;;
20245;SDS011;10281;54.406;18.556;2022-09-06T04:42:54;4.27;;;3.20;;
20245;SDS011;10281;54.406;18.556;2022-09-06T04:45:20;6.27;;;3.20;;
20245;SDS011;10281;54.406;18.556;2022-09-06T04:47:48;4.20;;;3.33;;
20245;SDS011;10281;54.406;18.556;2022-09-06T04:50:16;4.23;;;3.10;;
20245;SDS011;10281;54.406;18.556;2022-09-06T04:52:43;3.63;;;3.33;;
20245;SDS011;10281;54.406;18.556;2022-09-06T04:55:09;5.30;;;3.60;;
20245;SDS011;10281;54.406;18.556;2022-09-06T04:57:36;7.27;;;3.77;;
20245;SDS011;10281;54.406;18.556;2022-09-06T05:00:03;7.17;;;3.33;;
20245;SDS011;10281;54.406;18.556;2022-09-06T05:02:30;4.47;;;3.37;;
20245;SDS011;10281;54.406;18.556;2022-09-06T05:04:56;5.00;;;3.17;;
20245;SDS011;10281;54.406;18.556;2022-09-06T05:07:23;3.77;;;3.10;;
20245;SDS011;10281;54.406;18.556;2022-09-06T05:09:50;5.13;;;3.50;;
20245;SDS011;10281;54.406;18.556;2022-09-06T05:12:16;5.33;;;3.47;;
20245;SDS011;10281;54.406;18.556;2022-09-06T05:14:43;5.33;;;3.13;;
20245;SDS011;10281;54.406;18.556;2022-09-06T05:17:10;5.83;;;3.43;;
20245;SDS011;10281;54.406;18.556;2022-09-06T05:19:38;6.63;;;3.87;;
20245;SDS011;10281;54.406;18.556;2022-09-06T05:22:05;7.70;;;3.97;;
20245;SDS011;10281;54.406;18.556;2022-09-06T05:24:32;7.50;;;4.80;;
20245;SDS011;10281;54.406;18.556;2022-09-06T05:26:59;7.87;;;4.87;;
20245;SDS011;10281;54.406;18.556;2022-09-06T05:29:27;13.63;;;6.20;;
20245;SDS011;10281;54.406;18.556;2022-09-06T05:31:54;6.50;;;4.50;;
20245;SDS011;10281;54.406;18.556;2022-09-06T05:34:21;4.20;;;3.70;;
20245;SDS011;10281;54.406;18.556;2022-09-06T05:36:47;6.00;;;3.40;;
20245;SDS011;10281;54.406;18.556;2022-09-06T05:39:14;7.87;;;4.60;;
20245;SDS011;10281;54.406;18.556;2022-09-06T05:41:40;7.80;;;7.10;;
20245;SDS011;10281;54.406;18.556;2022-09-06T05:44:08;7.87;;;5.27;;
20245;SDS011;10281;54.406;18.556;2022-09-06T05:46:40;6.70;;;5.23;;
20245;SDS011;10281;54.406;18.556;2022-09-06T05:49:07;7.73;;;4.80;;
20245;SDS011;10281;54.406;18.556;2022-09-06T05:51:34;12.13;;;6.10;;
20245;SDS011;10281;54.406;18.556;2022-09-06T05:54:01;11.33;;;6.47;;
20245;SDS011;10281;54.406;18.556;2022-09-06T05:56:28;5.53;;;4.23;;
20245;SDS011;10281;54.406;18.556;2022-09-06T05:58:55;7.97;;;4.97;;
20245;SDS011;10281;54.406;18.556;2022-09-06T06:01:23;6.30;;;4.13;;
20245;SDS011;10281;54.406;18.556;2022-09-06T06:03:56;4.50;;;2.93;;
20245;SDS011;10281;54.406;18.556;2022-09-06T06:06:27;3.47;;;2.40;;
20245;SDS011;10281;54.406;18.556;2022-09-06T06:08:55;5.23;;;3.13;;
20245;SDS011;10281;54.406;18.556;2022-09-06T06:11:23;6.87;;;3.20;;
20245;SDS011;10281;54.406;18.556;2022-09-06T06:13:51;7.67;;;4.50;;
20245;SDS011;10281;54.406;18.556;2022-09-06T06:16:19;4.73;;;3.30;;
20245;SDS011;10281;54.406;18.556;2022-09-06T06:18:46;7.33;;;4.00;;
20245;SDS011;10281;54.406;18.556;2022-09-06T06:21:18;9.93;;;4.40;;
20245;SDS011;10281;54.406;18.556;2022-09-06T06:26:22;7.37;;;5.00;;
20245;SDS011;10281;54.406;18.556;2022-09-06T06:28:50;5.07;;;3.20;;
20245;SDS011;10281;54.406;18.556;2022-09-06T06:31:18;6.90;;;3.07;;
20245;SDS011;10281;54.406;18.556;2022-09-06T06:33:47;6.03;;;2.90;;
20245;SDS011;10281;54.406;18.556;2022-09-06T06:36:22;7.40;;;2.67;;
20245;SDS011;10281;54.406;18.556;2022-09-06T06:38:51;7.30;;;2.80;;
20245;SDS011;10281;54.406;18.556;2022-09-06T06:41:20;6.50;;;2.80;;
20245;SDS011;10281;54.406;18.556;2022-09-06T06:46:26;7.43;;;2.70;;
20245;SDS011;10281;54.406;18.556;2022-09-06T06:48:55;4.33;;;2.10;;
20245;SDS011;10281;54.406;18.556;2022-09-06T06:56:31;5.23;;;2.00;;
20245;SDS011;10281;54.406;18.556;2022-09-06T06:59:04;4.33;;;2.10;;
20245;SDS011;10281;54.406;18.556;2022-09-06T07:04:05;6.47;;;2.17;;
20245;SDS011;10281;54.406;18.556;2022-09-06T07:09:17;4.40;;;1.97;;
20245;SDS011;10281;54.406;18.556;2022-09-06T07:11:45;5.53;;;2.00;;
20245;SDS011;10281;54.406;18.556;2022-09-06T07:14:13;3.47;;;1.70;;
20245;SDS011;10281;54.406;18.556;2022-09-06T07:16:42;3.53;;;1.47;;
20245;SDS011;10281;54.406;18.556;2022-09-06T07:19:09;2.37;;;0.90;;
20245;SDS011;10281;54.406;18.556;2022-09-06T07:21:36;4.60;;;1.33;;
20245;SDS011;10281;54.406;18.556;2022-09-06T07:24:03;3.20;;;1.20;;
20245;SDS011;10281;54.406;18.556;2022-09-06T07:29:04;3.00;;;1.00;;
20245;SDS011;10281;54.406;18.556;2022-09-06T07:31:32;1.73;;;0.93;;
20245;SDS011;10281;54.406;18.556;2022-09-06T07:34:00;3.50;;;1.57;;
20245;SDS011;10281;54.406;18.556;2022-09-06T07:36:29;2.80;;;1.10;;
20245;SDS011;10281;54.406;18.556;2022-09-06T07:38:56;1.57;;;1.03;;
20245;SDS011;10281;54.406;18.556;2022-09-06T07:41:22;5.27;;;1.37;;
20245;SDS011;10281;54.406;18.556;2022-09-06T07:43:51;1.50;;;1.00;;
20245;SDS011;10281;54.406;18.556;2022-09-06T07:46:19;4.27;;;1.10;;
20245;SDS011;10281;54.406;18.556;2022-09-06T07:51:20;2.63;;;1.03;;
20245;SDS011;10281;54.406;18.556;2022-09-06T08:06:42;1.87;;;1.10;;
20245;SDS011;10281;54.406;18.556;2022-09-06T08:21:59;2.83;;;1.50;;
20245;SDS011;10281;54.406;18.556;2022-09-06T08:27:00;1.53;;;1.40;;
20245;SDS011;10281;54.406;18.556;2022-09-06T08:29:28;7.13;;;2.57;;
20245;SDS011;10281;54.406;18.556;2022-09-06T08:31:54;1.57;;;1.10;;
20245;SDS011;10281;54.406;18.556;2022-09-06T09:08:00;1.63;;;1.23;;
20245;SDS011;10281;54.406;18.556;2022-09-06T09:13:26;3.03;;;1.00;;
20245;SDS011;10281;54.406;18.556;2022-09-06T09:15:58;1.20;;;1.10;;
20245;SDS011;10281;54.406;18.556;2022-09-06T09:18:26;2.03;;;1.00;;
20245;SDS011;10281;54.406;18.556;2022-09-06T09:20:56;3.57;;;1.40;;
20245;SDS011;10281;54.406;18.556;2022-09-06T09:23:23;1.50;;;1.30;;
20245;SDS011;10281;54.406;18.556;2022-09-06T09:25:50;2.23;;;1.10;;
20245;SDS011;10281;54.406;18.556;2022-09-06T09:28:21;3.20;;;1.20;;
20245;SDS011;10281;54.406;18.556;2022-09-06T09:30:50;1.67;;;1.07;;
20245;SDS011;10281;54.406;18.556;2022-09-06T09:33:24;0.70;;;0.70;;
20245;SDS011;10281;54.406;18.556;2022-09-06T09:35:57;1.13;;;0.87;;
20245;SDS011;10281;54.406;18.556;2022-09-06T09:38:29;4.97;;;1.10;;
20245;SDS011;10281;54.406;18.556;2022-09-06T09:43:56;1.13;;;0.80;;
20245;SDS011;10281;54.406;18.556;2022-09-06T09:46:30;1.83;;;0.77;;
20245;SDS011;10281;54.406;18.556;2022-09-06T09:49:01;1.17;;;0.67;;
20245;SDS011;10281;54.406;18.556;2022-09-06T09:51:30;3.43;;;0.90;;
20245;SDS011;10281;54.406;18.556;2022-09-06T09:54:01;0.67;;;0.50;;
20245;SDS011;10281;54.406;18.556;2022-09-06T09:59:22;1.80;;;0.70;;
20245;SDS011;10281;54.406;18.556;2022-09-06T10:01:53;1.73;;;0.70;;
20245;SDS011;10281;54.406;18.556;2022-09-06T10:04:27;0.83;;;0.70;;
20245;SDS011;10281;54.406;18.556;2022-09-06T10:09:35;1.73;;;0.80;;
20245;SDS011;10281;54.406;18.556;2022-09-06T10:12:03;2.10;;;1.00;;
20245;SDS011;10281;54.406;18.556;2022-09-06T10:14:32;1.23;;;0.90;;
20245;SDS011;10281;54.406;18.556;2022-09-06T10:17:07;1.40;;;0.90;;
20245;SDS011;10281;54.406;18.556;2022-09-06T10:19:42;1.23;;;0.70;;
20245;SDS011;10281;54.406;18.556;2022-09-06T10:24:55;1.57;;;0.70;;
20245;SDS011;10281;54.406;18.556;2022-09-06T10:27:26;1.00;;;0.73;;
20245;SDS011;10281;54.406;18.556;2022-09-06T10:29:54;2.23;;;1.00;;
20245;SDS011;10281;54.406;18.556;2022-09-06T10:35:19;1.40;;;1.13;;
20245;SDS011;10281;54.406;18.556;2022-09-06T10:37:56;1.97;;;1.50;;
20245;SDS011;10281;54.406;18.556;2022-09-06T10:40:45;2.00;;;0.70;;
20245;SDS011;10281;54.406;18.556;2022-09-06T10:43:23;0.97;;;0.83;;
20245;SDS011;10281;54.406;18.556;2022-09-06T10:45:56;0.93;;;0.70;;
20245;SDS011;10281;54.406;18.556;2022-09-06T10:48:28;1.00;;;0.80;;
20245;SDS011;10281;54.406;18.556;2022-09-06T10:51:03;2.13;;;1.00;;
20245;SDS011;10281;54.406;18.556;2022-09-06T10:53:36;1.00;;;0.90;;
20245;SDS011;10281;54.406;18.556;2022-09-06T10:56:10;0.90;;;0.80;;
20245;SDS011;10281;54.406;18.556;2022-09-06T10:58:53;0.80;;;0.70;;
20245;SDS011;10281;54.406;18.556;2022-09-06T11:01:29;0.90;;;0.70;;
20245;SDS011;10281;54.406;18.556;2022-09-06T11:03:58;1.70;;;1.30;;
20245;SDS011;10281;54.406;18.556;2022-09-06T11:06:28;1.33;;;0.70;;
20245;SDS011;10281;54.406;18.556;2022-09-06T11:09:08;0.60;;;0.60;;
20245;SDS011;10281;54.406;18.556;2022-09-06T11:11:46;2.93;;;0.70;;
20245;SDS011;10281;54.406;18.556;2022-09-06T11:14:14;2.30;;;0.90;;
20245;SDS011;10281;54.406;18.556;2022-09-06T11:16:47;2.80;;;1.00;;
20245;SDS011;10281;54.406;18.556;2022-09-06T11:19:17;2.10;;;0.90;;
20245;SDS011;10281;54.406;18.556;2022-09-06T11:21:53;1.87;;;1.00;;
20245;SDS011;10281;54.406;18.556;2022-09-06T11:27:16;1.77;;;0.93;;
20245;SDS011;10281;54.406;18.556;2022-09-06T11:29:49;0.97;;;0.70;;
20245;SDS011;10281;54.406;18.556;2022-09-06T11:35:01;1.23;;;0.80;;
20245;SDS011;10281;54.406;18.556;2022-09-06T11:37:33;1.30;;;0.67;;
20245;SDS011;10281;54.406;18.556;2022-09-06T11:40:11;0.80;;;0.70;;
20245;SDS011;10281;54.406;18.556;2022-09-06T11:43:48;0.67;;;0.67;;
20245;SDS011;10281;54.406;18.556;2022-09-06T11:45:39;1.10;;;0.80;;
20245;SDS011;10281;54.406;18.556;2022-09-06T11:51:07;1.60;;;1.23;;
20245;SDS011;10281;54.406;18.556;2022-09-06T12:01:58;1.33;;;0.50;;
20245;SDS011;10281;54.406;18.556;2022-09-06T12:07:09;2.40;;;0.63;;
20245;SDS011;10281;54.406;18.556;2022-09-06T12:09:38;0.80;;;0.70;;
20245;SDS011;10281;54.406;18.556;2022-09-06T12:12:07;0.70;;;0.70;;
20245;SDS011;10281;54.406;18.556;2022-09-06T12:14:38;1.03;;;0.60;;
20245;SDS011;10281;54.406;18.556;2022-09-06T12:19:49;0.73;;;0.60;;
20245;SDS011;10281;54.406;18.556;2022-09-06T12:27:51;1.43;;;0.67;;
20245;SDS011;10281;54.406;18.556;2022-09-06T12:30:36;0.50;;;0.50;;
20245;SDS011;10281;54.406;18.556;2022-09-06T12:33:12;0.50;;;0.50;;
20245;SDS011;10281;54.406;18.556;2022-09-06T12:35:40;0.60;;;0.60;;
20245;SDS011;10281;54.406;18.556;2022-09-06T12:38:10;0.67;;;0.60;;
20245;SDS011;10281;54.406;18.556;2022-09-06T12:40:42;1.90;;;0.50;;
20245;SDS011;10281;54.406;18.556;2022-09-06T12:43:11;0.33;;;0.33;;
20245;SDS011;10281;54.406;18.556;2022-09-06T12:45:41;0.87;;;0.73;;
20245;SDS011;10281;54.406;18.556;2022-09-06T12:48:10;0.93;;;0.53;;
20245;SDS011;10281;54.406;18.556;2022-09-06T12:50:41;0.50;;;0.40;;
20245;SDS011;10281;54.406;18.556;2022-09-06T12:53:16;1.73;;;0.57;;
20245;SDS011;10281;54.406;18.556;2022-09-06T12:55:46;0.60;;;0.50;;
20245;SDS011;10281;54.406;18.556;2022-09-06T13:00:50;0.97;;;0.70;;
20245;SDS011;10281;54.406;18.556;2022-09-06T13:03:30;0.83;;;0.50;;
20245;SDS011;10281;54.406;18.556;2022-09-06T13:06:03;0.50;;;0.50;;
20245;SDS011;10281;54.406;18.556;2022-09-06T13:08:36;0.87;;;0.67;;
20245;SDS011;10281;54.406;18.556;2022-09-06T13:11:11;1.17;;;0.70;;
20245;SDS011;10281;54.406;18.556;2022-09-06T13:13:46;0.90;;;0.70;;
20245;SDS011;10281;54.406;18.556;2022-09-06T13:16:22;0.70;;;0.63;;
20245;SDS011;10281;54.406;18.556;2022-09-06T13:18:52;0.53;;;0.50;;
20245;SDS011;10281;54.406;18.556;2022-09-06T13:21:25;0.40;;;0.40;;
20245;SDS011;10281;54.406;18.556;2022-09-06T13:23:54;0.50;;;0.50;;
20245;SDS011;10281;54.406;18.556;2022-09-06T13:31:38;1.23;;;1.00;;
20245;SDS011;10281;54.406;18.556;2022-09-06T13:34:10;1.87;;;0.73;;
20245;SDS011;10281;54.406;18.556;2022-09-06T13:36:48;2.80;;;0.60;;
20245;SDS011;10281;54.406;18.556;2022-09-06T13:41:54;0.67;;;0.67;;
20245;SDS011;10281;54.406;18.556;2022-09-06T13:44:27;0.60;;;0.60;;
20245;SDS011;10281;54.406;18.556;2022-09-06T13:46:55;0.50;;;0.50;;
20245;SDS011;10281;54.406;18.556;2022-09-06T13:49:22;1.40;;;0.80;;
20245;SDS011;10281;54.406;18.556;2022-09-06T13:51:51;0.60;;;0.60;;
20245;SDS011;10281;54.406;18.556;2022-09-06T13:54:18;0.70;;;0.70;;
20245;SDS011;10281;54.406;18.556;2022-09-06T13:56:45;1.80;;;0.50;;
20245;SDS011;10281;54.406;18.556;2022-09-06T13:59:13;0.70;;;0.70;;
20245;SDS011;10281;54.406;18.556;2022-09-06T14:01:40;0.67;;;0.67;;
20245;SDS011;10281;54.406;18.556;2022-09-06T14:04:08;0.83;;;0.60;;
20245;SDS011;10281;54.406;18.556;2022-09-06T14:06:38;0.80;;;0.70;;
20245;SDS011;10281;54.406;18.556;2022-09-06T14:09:05;0.87;;;0.80;;
20245;SDS011;10281;54.406;18.556;2022-09-06T14:11:32;0.50;;;0.50;;
20245;SDS011;10281;54.406;18.556;2022-09-06T14:13:59;0.70;;;0.70;;
20245;SDS011;10281;54.406;18.556;2022-09-06T14:16:26;1.43;;;0.83;;
20245;SDS011;10281;54.406;18.556;2022-09-06T14:18:52;1.67;;;0.90;;
20245;SDS011;10281;54.406;18.556;2022-09-06T14:21:19;0.60;;;0.60;;
20245;SDS011;10281;54.406;18.556;2022-09-06T14:23:47;0.70;;;0.70;;
20245;SDS011;10281;54.406;18.556;2022-09-06T14:26:16;0.97;;;0.80;;
20245;SDS011;10281;54.406;18.556;2022-09-06T14:28:43;0.80;;;0.60;;
20245;SDS011;10281;54.406;18.556;2022-09-06T14:33:45;0.70;;;0.70;;
20245;SDS011;10281;54.406;18.556;2022-09-06T14:36:13;0.60;;;0.60;;
20245;SDS011;10281;54.406;18.556;2022-09-06T14:38:42;0.60;;;0.50;;
20245;SDS011;10281;54.406;18.556;2022-09-06T14:41:10;0.83;;;0.83;;
20245;SDS011;10281;54.406;18.556;2022-09-06T14:43:41;0.60;;;0.60;;
20245;SDS011;10281;54.406;18.556;2022-09-06T14:46:11;0.70;;;0.60;;
20245;SDS011;10281;54.406;18.556;2022-09-06T14:48:39;0.60;;;0.60;;
20245;SDS011;10281;54.406;18.556;2022-09-06T14:51:09;0.70;;;0.70;;
20245;SDS011;10281;54.406;18.556;2022-09-06T14:58:53;0.90;;;0.80;;
20245;SDS011;10281;54.406;18.556;2022-09-06T15:01:22;1.17;;;0.90;;
20245;SDS011;10281;54.406;18.556;2022-09-06T15:03:53;1.17;;;0.80;;
20245;SDS011;10281;54.406;18.556;2022-09-06T15:06:22;1.37;;;0.87;;
20245;SDS011;10281;54.406;18.556;2022-09-06T15:08:50;0.70;;;0.70;;
20245;SDS011;10281;54.406;18.556;2022-09-06T15:13:56;3.63;;;0.93;;
20245;SDS011;10281;54.406;18.556;2022-09-06T15:16:23;0.80;;;0.80;;
20245;SDS011;10281;54.406;18.556;2022-09-06T15:18:49;0.70;;;0.70;;
20245;SDS011;10281;54.406;18.556;2022-09-06T15:21:16;0.77;;;0.77;;
20245;SDS011;10281;54.406;18.556;2022-09-06T15:23:43;2.50;;;1.10;;
20245;SDS011;10281;54.406;18.556;2022-09-06T15:26:10;1.57;;;0.70;;
20245;SDS011;10281;54.406;18.556;2022-09-06T15:28:40;3.93;;;0.70;;
20245;SDS011;10281;54.406;18.556;2022-09-06T15:31:09;2.03;;;0.90;;
20245;SDS011;10281;54.406;18.556;2022-09-06T15:33:37;1.43;;;0.70;;
20245;SDS011;10281;54.406;18.556;2022-09-06T15:36:05;0.70;;;0.70;;
20245;SDS011;10281;54.406;18.556;2022-09-06T15:38:35;0.90;;;0.90;;
20245;SDS011;10281;54.406;18.556;2022-09-06T15:41:05;1.13;;;1.00;;
20245;SDS011;10281;54.406;18.556;2022-09-06T15:43:33;1.57;;;1.10;;
20245;SDS011;10281;54.406;18.556;2022-09-06T15:46:01;1.67;;;0.80;;
20245;SDS011;10281;54.406;18.556;2022-09-06T15:48:28;3.30;;;0.90;;
20245;SDS011;10281;54.406;18.556;2022-09-06T15:51:01;1.10;;;1.00;;
20245;SDS011;10281;54.406;18.556;2022-09-06T15:53:27;0.70;;;0.70;;
20245;SDS011;10281;54.406;18.556;2022-09-06T15:55:57;1.33;;;0.93;;
20245;SDS011;10281;54.406;18.556;2022-09-06T15:58:26;0.93;;;0.80;;
20245;SDS011;10281;54.406;18.556;2022-09-06T16:00:59;1.20;;;1.07;;
20245;SDS011;10281;54.406;18.556;2022-09-06T16:03:27;2.10;;;1.07;;
20245;SDS011;10281;54.406;18.556;2022-09-06T16:05:59;1.00;;;0.90;;
20245;SDS011;10281;54.406;18.556;2022-09-06T16:08:27;1.10;;;0.83;;
20245;SDS011;10281;54.406;18.556;2022-09-06T16:10:54;1.30;;;0.87;;
20245;SDS011;10281;54.406;18.556;2022-09-06T16:13:21;0.80;;;0.80;;
20245;SDS011;10281;54.406;18.556;2022-09-06T16:15:55;1.20;;;0.90;;
20245;SDS011;10281;54.406;18.556;2022-09-06T16:18:22;1.00;;;0.90;;
20245;SDS011;10281;54.406;18.556;2022-09-06T16:20:49;3.60;;;1.03;;
20245;SDS011;10281;54.406;18.556;2022-09-06T16:23:16;2.20;;;0.87;;
20245;SDS011;10281;54.406;18.556;2022-09-06T16:25:46;1.03;;;0.93;;
20245;SDS011;10281;54.406;18.556;2022-09-06T16:28:15;0.70;;;0.70;;
20245;SDS011;10281;54.406;18.556;2022-09-06T16:30:42;1.63;;;1.00;;
20245;SDS011;10281;54.406;18.556;2022-09-06T16:33:10;1.20;;;1.00;;
20245;SDS011;10281;54.406;18.556;2022-09-06T16:35:40;2.33;;;1.20;;
20245;SDS011;10281;54.406;18.556;2022-09-06T16:38:08;1.53;;;0.90;;
20245;SDS011;10281;54.406;18.556;2022-09-06T16:40:35;4.80;;;1.20;;
20245;SDS011;10281;54.406;18.556;2022-09-06T16:43:02;2.37;;;1.30;;
20245;SDS011;10281;54.406;18.556;2022-09-06T16:45:29;1.20;;;1.00;;
20245;SDS011;10281;54.406;18.556;2022-09-06T16:47:56;1.87;;;1.10;;
20245;SDS011;10281;54.406;18.556;2022-09-06T16:50:24;1.83;;;1.37;;
20245;SDS011;10281;54.406;18.556;2022-09-06T16:52:50;2.17;;;1.10;;
20245;SDS011;10281;54.406;18.556;2022-09-06T16:55:17;2.33;;;1.23;;
20245;SDS011;10281;54.406;18.556;2022-09-06T16:57:44;1.10;;;1.00;;
20245;SDS011;10281;54.406;18.556;2022-09-06T17:00:11;2.53;;;1.27;;
20245;SDS011;10281;54.406;18.556;2022-09-06T17:02:37;1.93;;;1.27;;
20245;SDS011;10281;54.406;18.556;2022-09-06T17:05:04;1.50;;;1.30;;
20245;SDS011;10281;54.406;18.556;2022-09-06T17:07:31;1.63;;;1.07;;
20245;SDS011;10281;54.406;18.556;2022-09-06T17:09:58;1.80;;;1.30;;
20245;SDS011;10281;54.406;18.556;2022-09-06T17:12:25;3.43;;;1.57;;
20245;SDS011;10281;54.406;18.556;2022-09-06T17:14:53;1.63;;;1.40;;
20245;SDS011;10281;54.406;18.556;2022-09-06T17:17:20;3.20;;;2.17;;
20245;SDS011;10281;54.406;18.556;2022-09-06T17:19:47;2.83;;;1.80;;
20245;SDS011;10281;54.406;18.556;2022-09-06T17:22:13;1.40;;;1.27;;
20245;SDS011;10281;54.406;18.556;2022-09-06T17:24:40;1.30;;;1.10;;
20245;SDS011;10281;54.406;18.556;2022-09-06T17:27:07;1.00;;;0.90;;
20245;SDS011;10281;54.406;18.556;2022-09-06T17:29:34;2.60;;;1.30;;
20245;SDS011;10281;54.406;18.556;2022-09-06T17:32:01;0.90;;;0.90;;
20245;SDS011;10281;54.406;18.556;2022-09-06T17:34:29;1.60;;;1.20;;
20245;SDS011;10281;54.406;18.556;2022-09-06T17:36:56;2.50;;;1.00;;